createdAt,value
2023-11-30T00:00:16.179Z,15.23
2023-11-30T00:02:46.610Z,16.53
2023-11-30T00:05:18.727Z,18.67
2023-11-30T00:07:49.871Z,16.23
2023-11-30T00:10:22.813Z,15.77
2023-11-30T00:12:55.723Z,16.23
2023-11-30T00:15:26.028Z,16.03
2023-11-30T00:17:57.622Z,15.53
2023-11-30T00:20:27.886Z,15.00
2023-11-30T00:22:58.131Z,13.80
2023-11-30T00:25:28.656Z,13.77
2023-11-30T00:28:01.510Z,14.20
2023-11-30T00:30:31.822Z,13.97
2023-11-30T00:33:02.265Z,13.47
2023-11-30T00:35:32.530Z,13.70
2023-11-30T00:38:02.802Z,12.60
2023-11-30T00:40:33.013Z,13.07
2023-11-30T00:43:05.939Z,14.03
2023-11-30T00:45:36.432Z,11.93
2023-11-30T00:48:07.421Z,13.63
2023-11-30T00:50:37.800Z,13.47
2023-11-30T00:53:08.053Z,14.33
2023-11-30T00:55:38.306Z,14.10
2023-11-30T00:58:11.141Z,14.27
2023-11-30T01:00:41.391Z,12.97
2023-11-30T01:03:11.687Z,13.40
2023-11-30T01:05:41.993Z,13.33
2023-11-30T01:08:12.229Z,13.63
2023-11-30T01:10:50.134Z,13.70
2023-11-30T01:13:23.017Z,13.13
2023-11-30T01:15:53.310Z,13.93
2023-11-30T01:18:23.697Z,13.43
2023-11-30T01:20:54.133Z,14.17
2023-11-30T01:23:24.370Z,14.20
2023-11-30T01:25:54.595Z,13.23
2023-11-30T01:28:27.472Z,13.17
2023-11-30T01:30:57.786Z,12.73
2023-11-30T01:33:28.135Z,13.03
2023-11-30T01:35:58.432Z,12.73
2023-11-30T01:38:28.688Z,12.80
2023-11-30T01:40:58.935Z,12.83
2023-11-30T01:43:32.583Z,12.47
2023-11-30T01:46:04.382Z,13.07
2023-11-30T01:48:37.618Z,13.07
2023-11-30T01:51:12.025Z,13.97
2023-11-30T01:53:44.753Z,13.87
2023-11-30T01:56:16.383Z,12.40
2023-11-30T01:58:49.538Z,12.80
2023-11-30T02:01:20.371Z,11.97
2023-11-30T02:03:50.966Z,11.67
2023-11-30T02:06:21.498Z,11.80
2023-11-30T02:08:53.127Z,12.67
2023-11-30T02:11:23.461Z,12.53
2023-11-30T02:13:58.346Z,12.07
2023-11-30T02:16:28.600Z,11.93
2023-11-30T02:18:58.984Z,13.60
2023-11-30T02:21:29.371Z,12.97
2023-11-30T02:24:03.343Z,11.80
2023-11-30T02:26:33.713Z,12.03
2023-11-30T02:29:03.972Z,11.60
2023-11-30T02:31:34.316Z,11.77
2023-11-30T02:34:06.966Z,10.83
2023-11-30T02:36:37.188Z,10.30
2023-11-30T02:39:10.815Z,10.67
2023-11-30T02:41:41.087Z,11.47
2023-11-30T02:44:12.780Z,10.23
2023-11-30T02:46:43.084Z,10.80
2023-11-30T02:49:13.367Z,11.77
2023-11-30T02:51:46.202Z,11.10
2023-11-30T02:54:19.118Z,11.50
2023-11-30T02:56:49.386Z,12.30
2023-11-30T02:59:19.621Z,12.83
2023-11-30T03:01:53.203Z,11.37
2023-11-30T03:04:23.838Z,12.60
2023-11-30T03:06:54.182Z,10.47
2023-11-30T03:09:27.132Z,12.03
2023-11-30T03:11:57.408Z,12.83
2023-11-30T03:14:27.673Z,12.40
2023-11-30T03:16:57.898Z,13.80
2023-11-30T03:19:28.161Z,12.73
2023-11-30T03:21:58.463Z,12.73
2023-11-30T03:24:31.351Z,13.37
2023-11-30T03:27:01.631Z,12.37
2023-11-30T03:29:31.895Z,12.17
2023-11-30T03:32:02.217Z,12.00
2023-11-30T03:34:32.514Z,11.97
2023-11-30T03:37:02.928Z,12.23
2023-11-30T03:39:36.112Z,11.97
2023-11-30T03:42:06.821Z,11.57
2023-11-30T03:44:37.160Z,11.40
2023-11-30T03:47:07.924Z,11.80
2023-11-30T03:49:38.161Z,11.83
2023-11-30T03:52:09.139Z,11.43
2023-11-30T03:54:41.954Z,11.47
2023-11-30T03:57:12.303Z,11.57
2023-11-30T03:59:43.719Z,12.47
2023-11-30T04:02:14.143Z,12.43
2023-11-30T04:04:44.608Z,11.57
2023-11-30T04:07:15.158Z,10.67
2023-11-30T04:09:48.786Z,12.37
2023-11-30T04:12:19.085Z,10.80
2023-11-30T04:14:49.404Z,10.63
2023-11-30T04:17:19.671Z,10.00
2023-11-30T04:19:49.924Z,9.70
2023-11-30T04:22:20.714Z,10.53
2023-11-30T04:24:53.591Z,9.77
2023-11-30T04:27:23.826Z,10.23
2023-11-30T04:29:54.087Z,10.00
2023-11-30T04:32:24.429Z,9.77
2023-11-30T04:34:54.710Z,8.93
2023-11-30T04:37:24.933Z,8.93
2023-11-30T04:39:59.010Z,8.87
2023-11-30T04:42:29.351Z,9.97
2023-11-30T04:44:59.766Z,8.80
2023-11-30T04:47:30.079Z,9.10
2023-11-30T04:50:00.389Z,12.23
2023-11-30T04:52:30.652Z,9.83
2023-11-30T04:55:03.608Z,10.67
2023-11-30T04:57:33.945Z,11.47
2023-11-30T05:00:06.627Z,9.23
2023-11-30T05:02:41.715Z,8.97
2023-11-30T05:05:12.731Z,9.20
2023-11-30T05:07:42.998Z,7.93
2023-11-30T05:10:16.319Z,8.20
2023-11-30T05:12:47.316Z,9.03
2023-11-30T05:15:17.653Z,9.90
2023-11-30T05:17:47.902Z,10.00
2023-11-30T05:20:18.334Z,11.40
2023-11-30T05:22:48.554Z,8.73
2023-11-30T05:25:21.582Z,9.63
2023-11-30T05:27:54.550Z,9.33
2023-11-30T05:30:27.613Z,8.60
2023-11-30T05:32:58.113Z,8.77
2023-11-30T05:35:28.509Z,9.63
2023-11-30T05:37:58.981Z,10.13
2023-11-30T05:40:31.832Z,8.10
2023-11-30T05:43:02.130Z,10.47
2023-11-30T05:45:32.390Z,10.67
2023-11-30T05:48:02.794Z,10.90
2023-11-30T05:50:33.682Z,10.03
2023-11-30T05:53:07.666Z,11.67
2023-11-30T05:55:40.525Z,8.70
2023-11-30T05:58:10.808Z,8.77
2023-11-30T06:00:41.106Z,10.63
2023-11-30T06:03:11.408Z,10.47
2023-11-30T06:05:41.721Z,8.87
2023-11-30T06:08:14.624Z,8.93
2023-11-30T06:10:47.653Z,9.93
2023-11-30T06:13:17.963Z,8.43
2023-11-30T06:15:48.272Z,8.63
2023-11-30T06:18:18.634Z,9.63
2023-11-30T06:20:48.935Z,10.97
2023-11-30T06:23:19.242Z,10.97
2023-11-30T06:25:52.632Z,9.40
2023-11-30T06:28:22.989Z,9.13
2023-11-30T06:30:53.237Z,8.97
2023-11-30T06:33:23.480Z,8.40
2023-11-30T06:35:53.782Z,8.07
2023-11-30T06:38:24.070Z,7.50
2023-11-30T06:40:56.901Z,7.33
2023-11-30T06:43:29.673Z,6.93
2023-11-30T06:45:59.960Z,7.57
2023-11-30T06:48:30.256Z,7.00
2023-11-30T06:51:00.534Z,7.73
2023-11-30T06:53:30.822Z,8.20
2023-11-30T06:56:03.628Z,7.93
2023-11-30T06:58:33.891Z,7.73
2023-11-30T07:01:04.438Z,6.47
2023-11-30T07:03:42.567Z,7.10
2023-11-30T07:06:14.449Z,7.30
2023-11-30T07:08:44.734Z,7.27
2023-11-30T07:11:25.152Z,5.50
2023-11-30T07:13:55.404Z,7.40
2023-11-30T07:16:25.675Z,5.70
2023-11-30T07:18:55.971Z,5.97
2023-11-30T07:21:27.885Z,5.73
2023-11-30T07:23:58.385Z,5.77
2023-11-30T07:26:31.217Z,6.20
2023-11-30T07:29:01.589Z,4.63
2023-11-30T07:31:31.903Z,5.00
2023-11-30T07:34:02.294Z,5.30
2023-11-30T07:36:32.568Z,6.10
2023-11-30T07:39:02.890Z,6.00
2023-11-30T07:41:35.728Z,5.83
2023-11-30T07:44:07.078Z,7.60
2023-11-30T07:46:37.368Z,7.90
2023-11-30T07:49:07.677Z,9.57
2023-11-30T07:51:37.980Z,9.70
2023-11-30T07:54:09.581Z,13.90
2023-11-30T07:56:42.454Z,10.87
2023-11-30T07:59:14.527Z,8.63
2023-11-30T08:01:44.939Z,7.53
2023-11-30T08:04:15.344Z,9.13
2023-11-30T08:06:49.226Z,8.00
2023-11-30T08:09:19.549Z,7.70
2023-11-30T08:11:53.820Z,8.80
2023-11-30T08:14:24.170Z,7.43
2023-11-30T08:16:54.563Z,5.00
2023-11-30T08:19:24.830Z,4.73
2023-11-30T08:21:57.457Z,4.00
2023-11-30T08:24:27.732Z,5.20
2023-11-30T08:27:00.733Z,7.17
2023-11-30T08:29:31.002Z,7.30
2023-11-30T08:32:01.249Z,6.13
2023-11-30T08:34:31.810Z,8.43
2023-11-30T08:37:02.062Z,12.60
2023-11-30T08:39:32.471Z,10.37
2023-11-30T08:42:05.482Z,9.63
2023-11-30T08:44:44.274Z,16.90
2023-11-30T08:47:15.468Z,17.57
2023-11-30T08:49:53.014Z,9.23
2023-11-30T08:52:24.477Z,5.70
2023-11-30T08:54:55.313Z,6.27
2023-11-30T08:57:28.206Z,5.77
2023-11-30T08:59:59.515Z,6.27
2023-11-30T09:02:32.085Z,7.70
2023-11-30T09:05:02.670Z,9.03
2023-11-30T09:07:34.000Z,10.70
2023-11-30T09:10:05.846Z,8.70
2023-11-30T09:12:38.877Z,10.50
2023-11-30T09:15:17.318Z,8.13
2023-11-30T09:17:49.624Z,10.20
2023-11-30T09:20:21.443Z,10.03
2023-11-30T09:22:52.191Z,9.53
2023-11-30T09:25:22.585Z,10.30
2023-11-30T09:27:55.969Z,10.80
2023-11-30T09:30:28.557Z,11.43
2023-11-30T09:33:01.685Z,10.53
2023-11-30T09:35:31.891Z,15.10
2023-11-30T09:38:03.024Z,12.27
2023-11-30T09:40:35.254Z,14.17
2023-11-30T09:43:09.979Z,17.17
2023-11-30T09:45:42.515Z,13.80
2023-11-30T09:48:12.900Z,27.37
2023-11-30T09:50:43.431Z,20.37
2023-11-30T09:53:14.268Z,10.80
2023-11-30T09:55:44.695Z,9.63
2023-11-30T09:58:17.654Z,9.80
2023-11-30T10:00:47.949Z,9.80
2023-11-30T10:03:18.381Z,9.60
2023-11-30T10:05:48.656Z,11.40
2023-11-30T10:08:23.819Z,10.67
2023-11-30T10:10:54.106Z,10.17
2023-11-30T10:13:31.136Z,10.77
2023-11-30T10:16:02.109Z,10.83
2023-11-30T10:18:35.884Z,16.00
2023-11-30T10:21:06.680Z,11.13
2023-11-30T10:23:37.879Z,9.87
2023-11-30T10:26:10.705Z,9.83
2023-11-30T10:28:44.201Z,10.23
2023-11-30T10:31:19.652Z,10.57
2023-11-30T10:33:59.136Z,11.10
2023-11-30T10:36:31.478Z,10.73
2023-11-30T10:39:12.405Z,12.53
2023-11-30T10:41:53.602Z,13.37
2023-11-30T10:44:32.094Z,11.63
2023-11-30T10:47:05.843Z,11.90
2023-11-30T10:49:36.293Z,12.83
2023-11-30T10:52:09.573Z,11.50
2023-11-30T10:54:47.875Z,12.57
2023-11-30T10:57:19.492Z,13.53
2023-11-30T11:00:01.026Z,14.03
2023-11-30T11:02:40.895Z,12.90
2023-11-30T11:05:16.997Z,13.63
2023-11-30T11:07:52.458Z,13.67
2023-11-30T11:10:28.951Z,12.90
2023-11-30T11:13:04.222Z,16.47
2023-11-30T11:15:39.250Z,13.93
2023-11-30T11:18:09.549Z,13.27
2023-11-30T11:20:40.979Z,11.77
2023-11-30T11:23:14.023Z,13.60
2023-11-30T11:25:50.188Z,15.23
2023-11-30T11:28:24.474Z,16.93
2023-11-30T11:30:57.858Z,14.50
2023-11-30T11:33:35.729Z,14.93
2023-11-30T11:36:08.458Z,14.50
2023-11-30T11:38:41.081Z,15.23
2023-11-30T11:41:11.945Z,16.43
2023-11-30T11:43:43.363Z,17.33
2023-11-30T11:46:16.324Z,13.53
2023-11-30T11:48:50.133Z,16.13
2023-11-30T11:51:20.732Z,39.10
2023-11-30T11:53:51.098Z,18.30
2023-11-30T11:56:21.389Z,28.57
2023-11-30T11:58:53.856Z,52.67
2023-11-30T12:01:26.831Z,31.90
2023-11-30T12:03:58.016Z,78.97
2023-11-30T12:06:31.867Z,75.73
2023-11-30T12:09:14.303Z,79.23
2023-11-30T12:11:44.911Z,28.80
2023-11-30T12:14:15.217Z,49.70
2023-11-30T12:16:48.096Z,23.30
2023-11-30T12:19:21.362Z,22.57
2023-11-30T12:21:51.721Z,20.73
2023-11-30T12:24:23.111Z,18.33
2023-11-30T12:26:53.927Z,16.50
2023-11-30T12:29:24.154Z,19.03
2023-11-30T12:31:56.684Z,17.03
2023-11-30T12:34:27.265Z,15.00
2023-11-30T12:36:57.676Z,24.10
2023-11-30T12:39:27.982Z,16.30
2023-11-30T12:41:58.241Z,20.27
2023-11-30T12:44:28.528Z,18.03
2023-11-30T12:47:01.674Z,23.00
2023-11-30T12:49:33.582Z,42.37
2023-11-30T12:52:07.094Z,32.47
2023-11-30T12:57:40.212Z,65.70
2023-11-30T13:00:18.009Z,47.93
2023-11-30T13:02:50.889Z,24.23
2023-11-30T13:05:22.484Z,20.97
2023-11-30T13:07:55.683Z,28.77
2023-11-30T13:10:28.756Z,32.60
2023-11-30T13:12:59.095Z,22.53
2023-11-30T13:15:29.634Z,21.23
2023-11-30T13:18:02.711Z,22.40
2023-11-30T13:20:32.936Z,23.47
2023-11-30T13:23:03.188Z,19.63
2023-11-30T13:25:34.863Z,23.80
2023-11-30T13:28:06.892Z,29.10
2023-11-30T13:30:37.280Z,20.97
2023-11-30T13:33:10.299Z,21.43
2023-11-30T13:35:41.150Z,21.77
2023-11-30T13:38:11.827Z,23.47
2023-11-30T13:40:42.057Z,26.00
2023-11-30T13:43:12.341Z,22.30
2023-11-30T13:45:42.711Z,22.67
2023-11-30T13:48:42.725Z,21.47
2023-11-30T13:51:14.496Z,20.23
2023-11-30T13:53:44.742Z,25.90
2023-11-30T13:56:15.770Z,25.37
2023-11-30T13:58:46.389Z,26.07
2023-11-30T14:01:16.737Z,25.90
2023-11-30T14:03:49.776Z,28.13
2023-11-30T14:06:20.292Z,25.73
2023-11-30T14:08:50.585Z,27.77
2023-11-30T14:11:21.873Z,38.50
2023-11-30T14:13:52.300Z,30.03
2023-11-30T14:16:22.637Z,24.37
2023-11-30T14:18:56.098Z,23.53
2023-11-30T14:21:26.471Z,23.43
2023-11-30T14:24:16.006Z,41.97
2023-11-30T14:26:46.323Z,23.73
2023-11-30T14:29:17.121Z,18.87
2023-11-30T14:31:48.809Z,23.80
2023-11-30T14:34:21.716Z,19.90
2023-11-30T14:36:54.408Z,25.83
2023-11-30T14:39:30.874Z,22.03
2023-11-30T14:42:01.192Z,30.47
2023-11-30T14:44:31.908Z,28.20
2023-11-30T14:47:02.152Z,45.47
2023-11-30T14:49:35.045Z,22.67
2023-11-30T14:52:05.294Z,14.33
2023-11-30T14:54:35.597Z,15.40
2023-11-30T14:57:10.398Z,17.47
2023-11-30T14:59:41.352Z,17.10
2023-11-30T15:02:11.682Z,19.73
2023-11-30T15:04:44.640Z,18.67
2023-11-30T15:07:14.894Z,22.57
2023-11-30T15:09:46.884Z,21.90
2023-11-30T15:12:20.029Z,31.93
2023-11-30T15:14:50.342Z,19.30
2023-11-30T15:17:20.617Z,24.10
2023-11-30T15:19:55.321Z,24.10
2023-11-30T15:22:25.676Z,23.17
2023-11-30T15:24:55.968Z,21.70
2023-11-30T15:27:29.072Z,18.93
2023-11-30T15:29:59.329Z,20.10
2023-11-30T15:32:29.569Z,20.67
2023-11-30T15:35:04.197Z,22.87
2023-11-30T15:37:36.509Z,23.17
2023-11-30T15:40:10.388Z,38.70
2023-11-30T15:42:40.759Z,38.00
2023-11-30T15:45:13.934Z,25.67
2023-11-30T15:47:44.723Z,18.93
2023-11-30T15:50:18.013Z,19.57
2023-11-30T15:52:48.490Z,52.60
2023-11-30T15:55:19.065Z,22.77
2023-11-30T15:57:49.900Z,30.57
2023-11-30T16:00:21.730Z,26.53
2023-11-30T16:02:54.738Z,48.23
2023-11-30T16:05:30.269Z,91.77
2023-11-30T16:08:00.578Z,72.87
2023-11-30T16:10:30.814Z,42.23
2023-11-30T16:13:01.096Z,38.90
2023-11-30T16:15:31.378Z,29.57
2023-11-30T16:18:01.703Z,20.97
2023-11-30T16:20:34.564Z,22.77
2023-11-30T16:23:05.349Z,22.10
2023-11-30T16:25:35.607Z,37.90
2023-11-30T16:28:07.958Z,28.07
2023-11-30T16:30:38.242Z,22.50
2023-11-30T16:33:09.161Z,20.73
2023-11-30T16:35:42.140Z,21.30
2023-11-30T16:38:12.510Z,22.63
2023-11-30T16:40:43.769Z,26.23
2023-11-30T16:43:14.016Z,29.47
2023-11-30T16:45:44.582Z,28.40
2023-11-30T16:48:17.021Z,31.17
2023-11-30T16:50:52.035Z,33.10
2023-11-30T16:53:23.211Z,29.83
2023-11-30T16:55:54.350Z,37.70
2023-11-30T16:58:24.634Z,31.50
2023-11-30T17:00:54.881Z,30.77
2023-11-30T17:03:26.876Z,26.30
2023-11-30T17:05:59.953Z,32.10
2023-11-30T17:08:30.246Z,32.27
2023-11-30T17:11:01.895Z,30.53
2023-11-30T17:13:32.562Z,26.53
2023-11-30T17:16:04.136Z,22.40
2023-11-30T17:18:35.060Z,23.70
2023-11-30T17:21:08.423Z,21.33
2023-11-30T17:23:40.000Z,29.67
2023-11-30T17:26:11.936Z,24.93
2023-11-30T17:28:42.359Z,28.03
2023-11-30T17:31:13.588Z,44.13
2023-11-30T17:33:44.197Z,39.50
2023-11-30T17:36:19.090Z,52.53
2023-11-30T17:38:50.405Z,49.27
2023-11-30T17:41:20.661Z,35.30
2023-11-30T17:43:50.887Z,33.60
2023-11-30T17:46:21.226Z,29.77
2023-11-30T17:48:51.509Z,28.07
2023-11-30T17:51:24.384Z,25.70
2023-11-30T17:53:56.322Z,26.93
2023-11-30T17:56:27.020Z,27.27
2023-11-30T17:58:57.310Z,19.10
2023-11-30T18:01:28.718Z,17.17
2023-11-30T18:03:59.094Z,17.97
2023-11-30T18:06:34.630Z,17.93
2023-11-30T18:09:04.903Z,20.93
2023-11-30T18:11:38.112Z,20.60
2023-11-30T18:14:08.370Z,26.30
2023-11-30T18:16:38.620Z,31.70
2023-11-30T18:19:09.799Z,28.67
2023-11-30T18:21:42.728Z,30.80
2023-11-30T18:24:13.041Z,24.87
2023-11-30T18:26:43.336Z,23.63
2023-11-30T18:29:13.687Z,21.63
2023-11-30T18:31:44.133Z,22.77
2023-11-30T18:34:14.487Z,24.17
2023-11-30T18:36:47.594Z,22.90
2023-11-30T18:39:19.935Z,22.90
2023-11-30T18:41:52.429Z,23.07
2023-11-30T18:44:22.945Z,21.33
2023-11-30T18:46:53.300Z,21.90
2023-11-30T18:49:23.582Z,18.80
2023-11-30T18:51:56.614Z,19.60
2023-11-30T18:54:26.922Z,23.20
2023-11-30T18:56:57.191Z,25.27
2023-11-30T18:59:28.827Z,23.43
2023-11-30T19:01:59.408Z,25.60
2023-11-30T19:04:29.821Z,25.20
2023-11-30T19:07:02.705Z,27.40
2023-11-30T19:09:33.076Z,24.83
2023-11-30T19:12:03.426Z,21.93
2023-11-30T19:14:33.686Z,21.73
2023-11-30T19:17:04.418Z,19.57
2023-11-30T19:19:34.724Z,23.03
2023-11-30T19:22:08.048Z,22.33
2023-11-30T19:24:40.395Z,23.40
2023-11-30T19:27:10.690Z,24.20
2023-11-30T19:29:40.938Z,27.60
2023-11-30T19:32:11.521Z,23.53
2023-11-30T19:34:42.053Z,24.17
2023-11-30T19:37:14.946Z,21.83
2023-11-30T19:39:45.188Z,22.63
2023-11-30T19:42:15.505Z,22.67
2023-11-30T19:44:45.753Z,28.43
2023-11-30T19:47:16.759Z,29.73
2023-11-30T19:49:47.972Z,30.10
2023-11-30T19:52:20.807Z,28.60
2023-11-30T19:54:51.451Z,23.53
2023-11-30T19:57:21.972Z,22.43
2023-11-30T19:59:52.263Z,24.50
2023-11-30T20:02:22.704Z,26.50
2023-11-30T20:04:53.057Z,24.20
2023-11-30T20:07:25.955Z,25.20
2023-11-30T20:09:56.357Z,25.90
2023-11-30T20:12:26.718Z,26.27
2023-11-30T20:14:57.000Z,28.53
2023-11-30T20:17:27.317Z,26.53
2023-11-30T20:19:57.618Z,25.70
2023-11-30T20:22:32.702Z,28.67
2023-11-30T20:25:06.282Z,29.90
2023-11-30T20:27:38.489Z,31.47
2023-11-30T20:30:11.149Z,38.77
2023-11-30T20:32:42.505Z,32.60
2023-11-30T20:35:13.458Z,26.63
2023-11-30T20:37:54.984Z,25.97
2023-11-30T20:40:25.421Z,30.50
2023-11-30T20:42:55.941Z,28.73
2023-11-30T20:45:26.295Z,73.80
2023-11-30T20:47:56.716Z,32.13
2023-11-30T20:50:26.977Z,28.90
2023-11-30T20:53:01.915Z,30.20
2023-11-30T20:55:32.133Z,27.73
2023-11-30T20:58:02.474Z,30.57
2023-11-30T21:00:33.556Z,29.03
2023-11-30T21:03:04.267Z,34.60
2023-11-30T21:05:34.583Z,27.47
2023-11-30T21:08:08.905Z,29.07
2023-11-30T21:10:41.518Z,28.10
2023-11-30T21:13:11.738Z,29.07
2023-11-30T21:15:46.369Z,28.00
2023-11-30T21:18:16.683Z,31.30
2023-11-30T21:20:49.259Z,31.23
2023-11-30T21:23:22.154Z,29.03
2023-11-30T21:25:52.375Z,34.03
2023-11-30T21:28:22.588Z,28.90
2023-11-30T21:30:52.920Z,28.53
2023-11-30T21:33:25.652Z,29.63
2023-11-30T21:35:59.663Z,70.03
2023-11-30T21:38:32.514Z,36.93
2023-11-30T21:41:03.216Z,31.53
2023-11-30T21:43:33.487Z,34.67
2023-11-30T21:46:05.925Z,34.83
2023-11-30T21:48:36.311Z,37.10
2023-11-30T21:51:07.087Z,31.80
2023-11-30T21:53:39.881Z,32.33
2023-11-30T21:56:12.866Z,34.50
2023-11-30T21:58:43.136Z,32.60
2023-11-30T22:01:13.875Z,35.30
2023-11-30T22:03:44.582Z,51.83
2023-11-30T22:06:15.074Z,50.63
2023-11-30T22:08:52.180Z,36.30
2023-11-30T22:11:22.823Z,30.60
2023-11-30T22:13:53.190Z,33.77
2023-11-30T22:16:26.524Z,31.67
2023-11-30T22:19:03.510Z,34.53
2023-11-30T22:21:33.906Z,29.00
2023-11-30T22:24:07.327Z,36.33
2023-11-30T22:26:37.574Z,36.97
2023-11-30T22:29:07.901Z,33.37
2023-11-30T22:31:38.753Z,39.57
2023-11-30T22:34:09.148Z,43.63
2023-11-30T22:36:39.549Z,45.73
2023-11-30T22:39:12.488Z,45.93
2023-11-30T22:41:42.774Z,46.83
2023-11-30T22:44:13.236Z,48.40
2023-11-30T22:46:43.542Z,47.47
2023-11-30T22:49:17.588Z,46.20
2023-11-30T22:51:48.020Z,46.53
2023-11-30T22:54:20.955Z,44.73
2023-11-30T22:56:52.676Z,42.50
2023-11-30T22:59:22.998Z,44.07
2023-11-30T23:01:53.512Z,44.93
2023-11-30T23:04:24.347Z,45.00
2023-11-30T23:06:54.725Z,46.93
2023-11-30T23:09:27.579Z,47.93
2023-11-30T23:11:58.705Z,50.77
2023-11-30T23:14:29.138Z,55.10
2023-11-30T23:16:59.522Z,50.93
2023-11-30T23:19:32.772Z,54.83
2023-11-30T23:22:03.118Z,53.03
2023-11-30T23:24:36.347Z,49.83
2023-11-30T23:27:06.790Z,55.10
2023-11-30T23:29:38.021Z,52.70
2023-11-30T23:32:09.575Z,54.30
2023-11-30T23:34:40.216Z,55.63
2023-11-30T23:37:10.542Z,59.23
2023-11-30T23:39:43.477Z,54.23
2023-11-30T23:42:14.233Z,56.23
2023-11-30T23:44:48.183Z,54.97
2023-11-30T23:47:18.501Z,54.73
2023-11-30T23:49:48.841Z,53.73
2023-11-30T23:52:19.349Z,56.80
2023-11-30T23:54:52.312Z,51.43
2023-11-30T23:57:22.541Z,54.00
2023-11-30T23:59:56.597Z,53.70
